createdAt,value
2022-09-15T00:05:38.628Z,113
2022-09-15T00:11:29.074Z,115.5
2022-09-15T00:17:18.784Z,112.4
2022-09-15T00:23:10.295Z,112.9
2022-09-15T00:29:07.843Z,112.2
2022-09-15T00:34:59.625Z,110
2022-09-15T00:40:52.447Z,98.3
2022-09-15T00:47:22.033Z,103.4
2022-09-15T00:53:12.010Z,94.7
2022-09-15T00:59:01.976Z,95.4
2022-09-15T01:05:02.451Z,94.1
2022-09-15T01:10:52.210Z,87.9
2022-09-15T01:16:45.855Z,90
2022-09-15T01:22:38.430Z,92.9
2022-09-15T01:28:28.252Z,88
2022-09-15T01:34:22.042Z,83.2
2022-09-15T01:40:12.357Z,82.7
2022-09-15T01:46:04.694Z,90.5
2022-09-15T01:51:59.030Z,88.7
2022-09-15T01:57:49.313Z,81.3
2022-09-15T02:03:49.573Z,84.4
2022-09-15T02:09:46.695Z,88.4
2022-09-15T02:15:41.360Z,95.6
2022-09-15T02:21:33.687Z,96.1
2022-09-15T02:27:24.269Z,106.2
2022-09-15T02:33:15.519Z,104.8
2022-09-15T02:39:11.351Z,110.4
2022-09-15T02:45:02.093Z,107.2
2022-09-15T02:50:52.226Z,108.6
2022-09-15T02:56:45.710Z,102.2
2022-09-15T03:02:41.365Z,100.1
2022-09-15T03:08:33.014Z,102.8
2022-09-15T03:14:25.304Z,92
2022-09-15T03:20:16.052Z,90.5
2022-09-15T03:26:08.142Z,90
2022-09-15T03:32:07.458Z,84.7
2022-09-15T03:37:57.218Z,83.9
2022-09-15T03:43:47.993Z,85.5
2022-09-15T03:49:40.756Z,82.8
2022-09-15T03:55:32.215Z,81.2
2022-09-15T04:01:26.962Z,86.1
2022-09-15T04:07:19.635Z,82.6
2022-09-15T04:13:10.077Z,86.7
2022-09-15T04:19:00.392Z,86.7
2022-09-15T04:24:53.362Z,88.6
2022-09-15T04:30:45.460Z,92.3
2022-09-15T04:36:37.948Z,89.3
2022-09-15T04:42:30.187Z,79
2022-09-15T04:48:22.164Z,74.3
2022-09-15T04:54:18.321Z,76.7
2022-09-15T05:00:09.277Z,77.4
2022-09-15T05:06:00.451Z,76.4
2022-09-15T05:11:50.220Z,78
2022-09-15T05:17:40.306Z,83.1
2022-09-15T05:23:29.792Z,79.7
2022-09-15T05:29:45.378Z,73.9
2022-09-15T05:43:12.943Z,76
2022-09-15T05:49:34.677Z,70.6
2022-09-15T06:02:58.881Z,66.6
2022-09-15T07:23:34.764Z,61.5
2022-09-15T07:29:50.198Z,59.4
2022-09-15T07:36:03.437Z,61.2
2022-09-15T07:42:31.024Z,61.2
2022-09-15T07:48:35.526Z,59.3
2022-09-15T07:54:39.819Z,61
2022-09-15T08:29:59.136Z,62
2022-09-15T08:36:07.677Z,61.6
2022-09-15T08:42:00.203Z,61.6
2022-09-15T08:47:57.086Z,59
2022-09-15T08:53:51.214Z,60.9
2022-09-15T08:59:45.085Z,53.6
2022-09-15T09:05:37.742Z,54.6
2022-09-15T09:11:33.356Z,50.8
2022-09-15T09:17:28.963Z,47.8
2022-09-15T09:23:24.313Z,40.4
2022-09-15T09:29:15.677Z,40.3
2022-09-15T09:35:08.496Z,37.6
2022-09-15T09:41:08.135Z,34.4
2022-09-15T09:46:58.656Z,32.8
2022-09-15T09:52:57.536Z,28
2022-09-15T09:58:50.153Z,25.1
2022-09-15T10:04:41.164Z,27.2
2022-09-15T10:10:36.022Z,25.3
2022-09-15T10:16:28.059Z,19.3
2022-09-15T10:22:18.490Z,18.5
2022-09-15T10:28:12.092Z,14.6
2022-09-15T10:34:03.369Z,14.2
2022-09-15T10:39:54.944Z,17.1
2022-09-15T10:45:48.068Z,13.7
2022-09-15T10:51:44.167Z,12.7
2022-09-15T10:57:34.481Z,8.9
2022-09-15T11:03:26.256Z,11.5
2022-09-15T11:09:25.259Z,12.3
2022-09-15T11:15:38.740Z,10.1
2022-09-15T11:21:44.552Z,8.8
2022-09-15T11:33:36.879Z,10.8
2022-09-15T11:39:29.750Z,9.3
2022-09-15T11:45:35.056Z,8.2
2022-09-15T11:51:26.338Z,8.7
2022-09-15T11:57:18.099Z,7.3
2022-09-15T12:03:11.054Z,5.7
2022-09-15T12:09:03.517Z,8.8
2022-09-15T12:15:00.097Z,6.1
2022-09-15T12:20:52.476Z,7.8
2022-09-15T12:26:45.559Z,6.6
2022-09-15T12:32:37.632Z,5
2022-09-15T12:38:27.749Z,7.3
2022-09-15T12:44:19.642Z,7.1
2022-09-15T12:50:12.871Z,13
2022-09-15T12:56:06.351Z,8
2022-09-15T13:01:55.467Z,5.8
2022-09-15T13:07:45.039Z,5.1
2022-09-15T13:13:38.277Z,6.7
2022-09-15T13:19:29.042Z,5.7
2022-09-15T13:25:21.268Z,7.2
2022-09-15T13:31:13.996Z,7.4
2022-09-15T13:38:23.933Z,8.3
2022-09-15T13:44:31.042Z,7.6
2022-09-15T13:50:22.049Z,6.3
2022-09-15T13:56:14.454Z,6.6
2022-09-15T14:02:12.032Z,8.3
2022-09-15T14:08:06.480Z,5.9
2022-09-15T14:13:56.085Z,5.5
2022-09-15T14:19:47.314Z,6.2
2022-09-15T14:25:40.340Z,7.1
2022-09-15T14:31:31.713Z,6.4
2022-09-15T14:37:22.389Z,6.8
2022-09-15T14:43:15.272Z,6.1
2022-09-15T14:49:07.560Z,4.8
2022-09-15T14:54:57.309Z,5.7
2022-09-15T15:00:48.568Z,6.6
2022-09-15T15:06:43.280Z,6.9
2022-09-15T15:12:34.987Z,6.8
2022-09-15T15:18:33.433Z,7.4
2022-09-15T15:49:10.696Z,6.6
2022-09-15T15:55:43.645Z,5.4
2022-09-15T16:09:10.812Z,7.3
2022-09-15T16:27:26.449Z,6
2022-09-15T16:33:46.071Z,7.3
2022-09-15T17:33:54.043Z,6.4
2022-09-15T17:39:50.363Z,6.1
2022-09-15T19:11:29.447Z,6
2022-09-15T19:30:12.506Z,7.3
2022-09-15T19:36:34.012Z,7.8
2022-09-15T19:42:32.610Z,5.2
2022-09-15T20:01:03.287Z,5.2
2022-09-15T20:59:57.339Z,8.5
2022-09-15T21:05:50.637Z,7.4
2022-09-15T21:11:43.677Z,8.1
2022-09-15T21:23:54.484Z,6.8
2022-09-15T21:29:55.449Z,6
2022-09-15T21:35:50.855Z,7.5
2022-09-15T21:41:45.930Z,5.6
2022-09-15T21:47:36.157Z,8
2022-09-15T21:53:33.920Z,8.1
2022-09-15T21:59:27.052Z,8.1
2022-09-15T22:05:26.650Z,5.4
2022-09-15T22:11:17.722Z,8.4
2022-09-15T22:17:08.866Z,6.8
2022-09-15T22:23:13.551Z,5.2
2022-09-15T22:41:02.578Z,7.1
2022-09-15T22:47:06.806Z,6
2022-09-15T22:52:56.489Z,6.6
2022-09-15T22:58:47.275Z,7
2022-09-15T23:04:38.112Z,6.9
2022-09-15T23:10:28.632Z,7.6
2022-09-15T23:16:19.633Z,8.6
2022-09-15T23:22:11.510Z,7.5
2022-09-15T23:28:01.089Z,6.3
2022-09-15T23:33:51.264Z,11.6
2022-09-15T23:39:42.203Z,10.3
2022-09-15T23:45:33.410Z,8.8
2022-09-15T23:51:23.253Z,8.8
2022-09-15T23:57:13.768Z,7.8
